首页
METAR-TAF:

METAR-TAF

机场 :

斯图加特机场

斯图加特, 德国

纬度: 48-41N, 经度: 009-13E, 海拔: 396米

当前天气观测

该预报发布于27分钟前的14:20 UTC
风速7节,风向多变
温度 13°C
湿度 33%
气压 1010 hPa
能见度10公里或以上
1500米以下无云,无积雨云

METAR: EDDS 021420Z VRB07KT CAVOK 13/M03 Q1010 NOSIG

时间: 16:47 (14:47 UTC)

预报

该预报发布于3小时和47分钟前的11:00 UTC
预报有效从02日的 12点(UTC)到 03日的 12点(UTC)
风速7节,风向西北
能见度10公里或以上
1500米以下无云,无积雨云
成为
从 02日的 18点(UTC)到 02日的 21点(UTC)
风速5节,风向西转西南

TAF: EDDS 021100Z 0212/0312 31007KT CAVOK BECMG 0218/0221 25005KT

超过4000个机场的气象观测和天气预报(METAR&TAF报告)。

可查询的气象台以黄色和红色小点在地图上表示。

将鼠标移到小点上方,可查看气象台名称。

然后点击查看天气观测和预报。

如需切换地图:点击带黑十字的绿色按钮放大地图;点击带横线的绿色按钮缩小地图;或者点击绿色箭头查看邻近地区的地图。


METAR-TAF: